Hlavní strana
METAR-TAF:

METAR-TAF

Letiště :

Lusaka, Zambie

zeměpisná šířka: 15-19-51S, zeměpisná délka: 028-27-09E, výška: 1152 m

Aktuální stav počasí

Zpráva byla vytvořena před 45 minutami, v 09:00 UTC
Západoseverozápadní vítr 4 kt
Teplota 29°C
Vlhkost vzduchu 58%
Tlak 1019 hPa
Viditelnost 10 km a více
Polojasno ve výšce 2500 ft
Skoro jasno ve výšce 10000 ft

METAR: FLKK 170900Z 29004KT 9999 SCT025 FEW100 29/20 Q1019

Čas: 11:45 (09:45 UTC)


TAF: chybějící

Stav a předpovědi počasí z více než 4 000 letišť (zprávy METAR a TAF).

Červené a žluté tečky na mapě představují dostupné meteorologické stanice.

Když kurzor umístíte na tečku, zobrazí se název stanice.

Pak kliknutím zobrazíte stav a předpověď počasí.

Chcete-li změnit mapu, kliknutím na zelené tlačítko se znaménkem +mapu přiblížíte, kliknutím na zelené tlačítko se znaménkem – mapu oddálíte a kliknutím na zelené šipky přejdete na sousední mapy.


METAR-TAF: